createdAt,value
2022-08-17T00:00:17.290Z,74.07
2022-08-17T00:03:10.233Z,73.96
2022-08-17T00:06:03.309Z,74.09
2022-08-17T00:08:57.430Z,73.82
2022-08-17T00:11:34.258Z,74.25
2022-08-17T00:14:11.238Z,74.43
2022-08-17T00:16:56.097Z,74.89
2022-08-17T00:19:25.657Z,74.26
2022-08-17T00:22:32.534Z,74.78
2022-08-17T00:24:43.473Z,74.65
2022-08-17T00:27:10.253Z,74.42
2022-08-17T00:29:36.772Z,74.43
2022-08-17T00:33:15.123Z,75.04
2022-08-17T00:34:50.436Z,74.77
2022-08-17T00:37:17.055Z,74.81
2022-08-17T00:39:44.168Z,75.00
2022-08-17T00:42:17.027Z,75.01
2022-08-17T00:44:44.796Z,75.23
2022-08-17T00:47:11.527Z,75.37
2022-08-17T00:49:38.186Z,75.09
2022-08-17T00:52:15.650Z,75.19
2022-08-17T00:54:47.296Z,75.37
2022-08-17T00:57:19.807Z,75.14
2022-08-17T01:00:03.249Z,74.69
2022-08-17T01:02:42.639Z,75.45
2022-08-17T01:05:15.294Z,75.00
2022-08-17T01:07:43.402Z,74.78
2022-08-17T01:11:00.253Z,75.53
2022-08-17T01:13:02.644Z,75.31
2022-08-17T01:15:33.550Z,75.32
2022-08-17T01:18:00.262Z,75.61
2022-08-17T01:20:27.196Z,75.65
2022-08-17T01:22:53.851Z,76.00
2022-08-17T01:25:21.507Z,75.37
2022-08-17T01:27:48.919Z,75.50
2022-08-17T01:30:58.541Z,75.56
2022-08-17T01:33:04.371Z,75.50
2022-08-17T01:35:31.380Z,75.89
2022-08-17T01:37:58.091Z,75.63
2022-08-17T01:40:41.987Z,76.18
2022-08-17T01:43:21.548Z,75.58
2022-08-17T01:46:02.512Z,76.05
2022-08-17T01:48:38.789Z,76.46
2022-08-17T01:51:07.302Z,76.46
2022-08-17T01:53:41.587Z,76.33
2022-08-17T01:56:11.750Z,75.73
2022-08-17T01:58:39.592Z,76.16
2022-08-17T02:01:07.672Z,76.38
2022-08-17T02:03:35.549Z,76.22
2022-08-17T02:06:03.715Z,76.15
2022-08-17T02:08:38.640Z,76.37
2022-08-17T02:11:11.705Z,76.27
2022-08-17T02:13:39.044Z,75.78
2022-08-17T02:16:05.955Z,76.40
2022-08-17T02:18:33.062Z,76.11
2022-08-17T02:21:00.411Z,75.83
2022-08-17T02:23:30.505Z,75.95
2022-08-17T02:25:59.820Z,76.58
2022-08-17T02:28:28.550Z,76.60
2022-08-17T02:31:03.858Z,76.41
2022-08-17T02:33:42.054Z,76.26
2022-08-17T02:36:11.804Z,76.08
2022-08-17T02:38:39.886Z,76.29
2022-08-17T02:41:06.970Z,76.13
2022-08-17T02:43:34.013Z,76.32
2022-08-17T02:46:00.816Z,76.10
2022-08-17T02:48:30.398Z,76.37
2022-08-17T02:50:59.010Z,76.10
2022-08-17T02:53:25.942Z,76.46
2022-08-17T02:55:53.187Z,77.27
2022-08-17T02:58:32.079Z,76.67
2022-08-17T03:01:06.545Z,77.28
2022-08-17T03:03:34.449Z,76.67
2022-08-17T03:06:01.418Z,76.83
2022-08-17T03:08:28.847Z,77.10
2022-08-17T03:10:55.637Z,76.60
2022-08-17T03:13:22.690Z,76.99
2022-08-17T03:15:49.803Z,77.23
2022-08-17T03:18:25.574Z,77.08
2022-08-17T03:21:00.266Z,76.83
2022-08-17T03:23:29.712Z,77.50
2022-08-17T03:25:58.205Z,77.00
2022-08-17T03:28:25.737Z,76.55
2022-08-17T03:30:52.951Z,76.84
2022-08-17T03:33:20.163Z,77.14
2022-08-17T03:35:47.395Z,77.08
2022-08-17T03:38:15.361Z,77.33
2022-08-17T03:40:57.856Z,77.32
2022-08-17T03:43:29.346Z,76.91
2022-08-17T03:46:27.591Z,76.65
2022-08-17T03:49:18.702Z,77.01
2022-08-17T03:52:04.126Z,76.54
2022-08-17T03:54:49.506Z,76.64
2022-08-17T03:57:16.748Z,76.52
2022-08-17T03:59:45.022Z,76.63
2022-08-17T04:02:22.316Z,77.30
2022-08-17T04:04:52.414Z,77.23
2022-08-17T04:07:21.308Z,77.57
2022-08-17T04:09:48.404Z,77.69
2022-08-17T04:12:17.159Z,77.76
2022-08-17T04:14:52.945Z,77.72
2022-08-17T04:17:23.225Z,77.81
2022-08-17T04:19:50.058Z,77.85
2022-08-17T04:22:32.817Z,77.74
2022-08-17T04:25:21.185Z,77.98
2022-08-17T04:27:49.005Z,77.51
2022-08-17T04:30:15.817Z,77.98
2022-08-17T04:33:05.765Z,78.19
2022-08-17T04:35:43.829Z,78.48
2022-08-17T04:38:13.540Z,79.08
2022-08-17T04:40:58.845Z,78.53
2022-08-17T04:43:27.903Z,78.95
2022-08-17T04:46:01.950Z,79.36
2022-08-17T04:48:37.010Z,79.00
2022-08-17T04:51:33.097Z,79.50
2022-08-17T04:54:04.051Z,79.21
2022-08-17T04:56:31.973Z,78.85
2022-08-17T04:59:06.669Z,79.46
2022-08-17T05:01:35.489Z,79.69
2022-08-17T05:04:33.446Z,79.59
2022-08-17T05:06:55.009Z,79.37
2022-08-17T05:09:21.964Z,79.90
2022-08-17T05:11:49.524Z,79.88
2022-08-17T05:14:16.126Z,80.17
2022-08-17T05:16:42.904Z,80.14
2022-08-17T05:19:09.547Z,80.19
2022-08-17T05:21:36.294Z,80.62
2022-08-17T05:24:05.998Z,80.62
2022-08-17T05:26:46.947Z,80.67
2022-08-17T05:29:16.053Z,80.54
2022-08-17T05:31:42.678Z,80.39
2022-08-17T05:34:12.009Z,80.44
2022-08-17T05:36:42.841Z,80.27
2022-08-17T05:39:16.803Z,80.39
2022-08-17T05:41:45.108Z,80.75
2022-08-17T05:44:16.431Z,80.84
2022-08-17T05:46:49.335Z,80.41
2022-08-17T05:49:21.934Z,80.63
2022-08-17T05:51:57.853Z,80.53
2022-08-17T05:54:50.875Z,80.33
2022-08-17T05:57:48.163Z,80.15
2022-08-17T06:00:42.033Z,80.07
2022-08-17T06:03:11.856Z,79.31
2022-08-17T06:06:05.392Z,79.96
2022-08-17T06:08:38.464Z,79.25
2022-08-17T06:11:20.463Z,78.71
2022-08-17T06:14:20.146Z,79.37
2022-08-17T06:16:50.030Z,78.71
2022-08-17T06:19:34.302Z,78.90
2022-08-17T06:22:02.903Z,78.63
2022-08-17T06:24:39.478Z,78.13
2022-08-17T06:27:25.522Z,78.59
2022-08-17T06:30:09.153Z,78.27
2022-08-17T06:32:42.648Z,78.48
2022-08-17T06:35:12.807Z,77.52
2022-08-17T06:37:55.567Z,78.29
2022-08-17T06:40:49.141Z,78.18
2022-08-17T06:43:40.420Z,77.70
2022-08-17T06:46:13.144Z,77.77
2022-08-17T06:48:46.719Z,77.41
2022-08-17T06:51:43.377Z,77.02
2022-08-17T06:54:38.202Z,77.60
2022-08-17T06:57:21.120Z,77.31
2022-08-17T07:00:18.639Z,76.50
2022-08-17T07:02:56.765Z,76.31
2022-08-17T07:05:32.136Z,76.32
2022-08-17T07:08:29.144Z,76.67
2022-08-17T07:11:01.255Z,76.08
2022-08-17T07:13:51.071Z,75.54
2022-08-17T07:16:47.941Z,75.45
2022-08-17T07:19:17.175Z,75.20
2022-08-17T07:21:57.749Z,75.09
2022-08-17T07:24:33.593Z,74.99
2022-08-17T07:27:37.151Z,74.31
2022-08-17T07:30:11.072Z,73.79
2022-08-17T07:32:50.747Z,74.04
2022-08-17T07:35:17.241Z,73.56
2022-08-17T07:37:53.104Z,73.04
2022-08-17T07:40:27.019Z,73.31
2022-08-17T07:43:18.790Z,73.15
2022-08-17T07:46:30.629Z,72.83
2022-08-17T07:49:17.229Z,72.49
2022-08-17T07:51:43.922Z,72.96
2022-08-17T07:54:22.786Z,72.52
2022-08-17T07:56:52.969Z,72.20
2022-08-17T07:59:24.395Z,72.01
2022-08-17T08:01:58.140Z,71.59
2022-08-17T08:05:01.627Z,70.77
2022-08-17T08:07:56.674Z,70.47
2022-08-17T08:10:35.596Z,69.11
2022-08-17T08:13:10.737Z,68.69
2022-08-17T08:15:53.626Z,68.17
2022-08-17T08:18:55.361Z,67.63
2022-08-17T08:21:49.070Z,67.94
2022-08-17T08:24:40.868Z,66.84
2022-08-17T08:27:27.669Z,67.10
2022-08-17T08:30:08.500Z,66.49
2022-08-17T08:32:51.639Z,66.79
2022-08-17T08:35:44.404Z,67.13
2022-08-17T08:38:26.920Z,67.54
2022-08-17T08:41:01.110Z,67.16
2022-08-17T08:44:03.651Z,67.26
2022-08-17T08:47:14.410Z,66.67
2022-08-17T08:50:07.446Z,67.09
2022-08-17T08:52:44.782Z,67.02
2022-08-17T08:55:34.558Z,67.09
2022-08-17T08:58:31.538Z,66.74
2022-08-17T09:01:00.415Z,66.98
2022-08-17T09:03:53.053Z,66.63
2022-08-17T09:06:39.411Z,66.49
2022-08-17T09:09:29.336Z,65.81
2022-08-17T09:13:09.607Z,65.50
2022-08-17T09:15:48.233Z,63.94
2022-08-17T09:19:00.480Z,64.63
2022-08-17T09:21:13.782Z,64.72
2022-08-17T09:23:59.381Z,63.85
2022-08-17T09:26:46.600Z,64.12
2022-08-17T09:29:17.104Z,63.30
2022-08-17T09:31:55.659Z,63.51
2022-08-17T09:34:35.092Z,63.25
2022-08-17T09:37:19.186Z,62.61
2022-08-17T09:39:55.688Z,60.86
2022-08-17T09:42:52.506Z,60.32
2022-08-17T09:45:35.114Z,59.94
2022-08-17T09:48:14.843Z,59.77
2022-08-17T09:51:04.633Z,60.01
2022-08-17T09:53:36.170Z,58.91
2022-08-17T09:56:32.952Z,57.61
2022-08-17T09:59:38.857Z,56.07
2022-08-17T10:02:46.258Z,55.03
2022-08-17T10:05:18.106Z,54.17
2022-08-17T10:07:56.118Z,53.44
2022-08-17T10:10:36.309Z,53.59
2022-08-17T10:13:10.521Z,54.12
2022-08-17T10:15:58.738Z,53.80
2022-08-17T10:18:44.454Z,53.29
2022-08-17T10:21:32.861Z,52.84
2022-08-17T10:24:30.357Z,53.09
2022-08-17T10:27:00.779Z,53.32
2022-08-17T10:29:48.645Z,52.52
2022-08-17T10:32:27.869Z,52.71
2022-08-17T10:35:16.595Z,52.52
2022-08-17T10:37:56.387Z,52.69
2022-08-17T10:40:45.419Z,52.63
2022-08-17T10:43:36.705Z,52.50
2022-08-17T10:46:30.394Z,53.07
2022-08-17T10:49:16.707Z,52.99
2022-08-17T10:51:47.335Z,53.01
2022-08-17T10:54:47.358Z,53.89
2022-08-17T10:57:29.250Z,52.68
2022-08-17T10:59:57.567Z,50.91
2022-08-17T11:02:50.013Z,49.83
2022-08-17T11:05:19.915Z,46.90
2022-08-17T11:08:05.415Z,46.77
2022-08-17T11:10:53.658Z,46.70
2022-08-17T11:13:45.175Z,46.40
2022-08-17T11:16:39.627Z,45.29
2022-08-17T11:20:01.580Z,45.48
2022-08-17T11:22:59.206Z,45.17
2022-08-17T11:25:54.777Z,44.74
2022-08-17T11:28:34.557Z,44.42
2022-08-17T11:31:37.915Z,43.54
2022-08-17T11:34:26.445Z,41.92
2022-08-17T11:37:05.374Z,42.01
2022-08-17T11:40:10.619Z,40.94
2022-08-17T11:43:25.431Z,39.48
2022-08-17T11:46:46.041Z,38.73
2022-08-17T11:49:58.675Z,38.00
2022-08-17T11:52:47.031Z,37.24
2022-08-17T11:55:40.681Z,36.09
2022-08-17T11:58:29.520Z,37.08
2022-08-17T12:01:29.385Z,37.84
2022-08-17T12:04:25.286Z,38.99
2022-08-17T12:07:00.838Z,38.33
2022-08-17T12:09:34.469Z,38.04
2022-08-17T12:12:14.563Z,37.71
2022-08-17T12:15:09.546Z,37.61
2022-08-17T12:17:40.815Z,37.71
2022-08-17T12:20:26.288Z,37.13
2022-08-17T12:23:16.610Z,36.49
2022-08-17T12:25:56.654Z,35.85
2022-08-17T12:28:32.867Z,34.18
2022-08-17T12:31:59.303Z,34.81
2022-08-17T12:34:42.464Z,36.14
2022-08-17T12:37:19.215Z,37.13
2022-08-17T12:40:08.560Z,36.48
2022-08-17T12:42:39.239Z,35.31
2022-08-17T12:45:20.442Z,35.33
2022-08-17T12:47:46.998Z,35.30
2022-08-17T12:50:29.813Z,35.09
2022-08-17T12:53:01.725Z,37.13
2022-08-17T12:55:32.505Z,37.70
2022-08-17T12:58:02.377Z,38.78
2022-08-17T13:00:35.765Z,39.24
2022-08-17T13:03:05.907Z,40.33
2022-08-17T13:05:58.515Z,41.71
2022-08-17T13:08:39.654Z,41.72
2022-08-17T13:11:10.107Z,42.34
2022-08-17T13:13:39.618Z,43.41
2022-08-17T13:17:15.475Z,44.31
2022-08-17T13:19:49.497Z,45.11
2022-08-17T13:22:18.326Z,46.32
2022-08-17T13:24:56.538Z,46.13
2022-08-17T13:27:26.129Z,46.24
2022-08-17T13:29:57.739Z,47.90
2022-08-17T13:32:39.938Z,48.04
2022-08-17T13:35:39.182Z,48.81
2022-08-17T13:38:10.268Z,49.79
2022-08-17T13:40:55.007Z,54.97
2022-08-17T13:43:44.907Z,58.03
2022-08-17T13:46:21.205Z,58.50
2022-08-17T13:49:02.811Z,61.11
2022-08-17T13:51:43.078Z,63.05
2022-08-17T13:54:28.580Z,64.24
2022-08-17T13:57:02.558Z,65.31
2022-08-17T13:59:52.728Z,68.13
2022-08-17T14:02:20.421Z,69.31
2022-08-17T14:04:48.615Z,70.87
2022-08-17T14:07:16.192Z,72.19
2022-08-17T14:09:52.116Z,75.83
2022-08-17T14:12:22.218Z,74.29
2022-08-17T14:14:49.659Z,74.33
2022-08-17T14:17:16.592Z,74.68
2022-08-17T14:19:43.225Z,75.05
2022-08-17T14:22:18.896Z,77.88
2022-08-17T14:24:45.937Z,76.13
2022-08-17T14:27:12.471Z,75.26
2022-08-17T14:29:41.250Z,74.28
2022-08-17T14:32:23.926Z,77.77
2022-08-17T14:34:51.833Z,76.20
2022-08-17T14:37:20.469Z,77.82
2022-08-17T14:39:53.042Z,79.14
2022-08-17T14:43:22.323Z,81.35
2022-08-17T14:46:39.279Z,82.59
2022-08-17T14:49:05.878Z,79.02
2022-08-17T14:51:32.539Z,80.49
2022-08-17T14:53:59.302Z,81.41
2022-08-17T14:56:26.366Z,82.26
2022-08-17T14:58:53.217Z,81.68
2022-08-17T15:01:21.714Z,82.09
2022-08-17T15:03:48.771Z,81.46
2022-08-17T15:06:16.465Z,81.65
2022-08-17T15:08:44.146Z,82.08
2022-08-17T15:11:14.398Z,81.57
2022-08-17T15:13:52.763Z,83.03
2022-08-17T15:16:41.107Z,84.03
2022-08-17T15:19:15.188Z,81.68
2022-08-17T15:22:10.812Z,81.72
2022-08-17T15:27:37.591Z,82.59
2022-08-17T15:32:58.602Z,83.52
2022-08-17T15:35:29.526Z,83.58
2022-08-17T15:38:18.534Z,86.22
2022-08-17T15:40:55.897Z,84.38
2022-08-17T15:43:30.292Z,84.19
2022-08-17T15:46:24.048Z,85.86
2022-08-17T15:48:56.418Z,84.88
2022-08-17T15:51:26.260Z,84.68
2022-08-17T15:54:19.423Z,87.27
2022-08-17T15:56:49.582Z,85.24
2022-08-17T15:59:16.353Z,85.16
2022-08-17T16:03:01.358Z,84.94
2022-08-17T16:04:46.572Z,85.88
2022-08-17T16:07:26.378Z,85.11
2022-08-17T16:10:09.172Z,84.98
2022-08-17T16:12:37.330Z,85.74
2022-08-17T16:15:07.806Z,86.18
2022-08-17T16:17:39.561Z,85.75
2022-08-17T16:20:19.918Z,85.34
2022-08-17T16:23:03.127Z,86.56
2022-08-17T16:25:52.144Z,85.80
2022-08-17T16:28:20.133Z,85.00
2022-08-17T16:30:48.707Z,85.24
2022-08-17T16:33:16.799Z,85.41
2022-08-17T16:35:43.649Z,85.11
2022-08-17T16:38:11.125Z,85.03
2022-08-17T16:40:42.833Z,85.18
2022-08-17T16:43:26.514Z,87.29
2022-08-17T16:45:53.477Z,85.09
2022-08-17T16:48:20.226Z,85.29
2022-08-17T16:51:03.277Z,86.32
2022-08-17T16:53:33.688Z,85.27
2022-08-17T16:56:07.679Z,85.21
2022-08-17T16:58:34.401Z,85.15
2022-08-17T17:01:01.094Z,85.48
2022-08-17T17:03:32.005Z,85.27
2022-08-17T17:09:39.828Z,85.49
2022-08-17T17:12:18.974Z,85.65
2022-08-17T17:15:02.996Z,85.15
2022-08-17T17:17:36.245Z,85.63
2022-08-17T17:20:11.718Z,86.60
2022-08-17T17:22:55.471Z,87.14
2022-08-17T17:25:34.804Z,86.93
2022-08-17T17:28:30.518Z,87.77
2022-08-17T17:31:07.921Z,85.71
2022-08-17T17:33:43.605Z,86.72
2022-08-17T17:36:24.162Z,86.29
2022-08-17T17:38:54.721Z,85.56
2022-08-17T17:41:37.155Z,85.41
2022-08-17T17:44:13.369Z,85.75
2022-08-17T17:46:50.987Z,85.02
2022-08-17T17:49:18.525Z,84.29
2022-08-17T17:52:22.758Z,85.83
2022-08-17T17:55:21.541Z,85.39
2022-08-17T17:58:08.921Z,85.67
2022-08-17T18:00:43.925Z,83.87
2022-08-17T18:03:50.814Z,85.30
2022-08-17T18:06:31.647Z,84.37
2022-08-17T18:09:33.800Z,85.54
2022-08-17T18:12:13.816Z,83.67
2022-08-17T18:53:01.753Z,85.97
2022-08-17T18:57:09.854Z,85.81
2022-08-17T19:03:34.697Z,85.52
2022-08-17T19:07:42.856Z,86.25
2022-08-17T19:16:53.635Z,84.49
2022-08-17T19:19:30.555Z,84.49
2022-08-17T19:22:29.049Z,86.15
2022-08-17T19:25:11.554Z,85.68
2022-08-17T19:28:20.446Z,85.65
2022-08-17T19:30:51.287Z,84.27
2022-08-17T19:33:22.885Z,85.20
2022-08-17T19:35:59.340Z,85.41
2022-08-17T19:38:47.889Z,86.89
2022-08-17T19:41:37.465Z,86.06
2022-08-17T19:44:27.150Z,86.44
2022-08-17T19:47:36.167Z,85.49
2022-08-17T19:50:24.780Z,85.68
2022-08-17T19:53:09.775Z,86.42
2022-08-17T19:55:51.088Z,85.01
2022-08-17T19:58:29.616Z,86.24
2022-08-17T20:00:56.441Z,84.58
2022-08-17T20:03:26.987Z,85.48
2022-08-17T20:06:12.711Z,84.72
2022-08-17T20:08:49.092Z,84.39
2022-08-17T20:11:25.803Z,85.00
2022-08-17T20:14:53.655Z,86.15
2022-08-17T20:17:31.602Z,85.55
2022-08-17T20:20:33.413Z,86.13
2022-08-17T20:23:51.045Z,85.71
2022-08-17T20:26:27.124Z,85.74
2022-08-17T20:29:14.105Z,85.11
2022-08-17T20:31:49.573Z,84.68
2022-08-17T20:34:33.582Z,85.81
2022-08-17T20:37:30.477Z,86.08
2022-08-17T20:40:20.484Z,85.17
2022-08-17T20:42:47.364Z,84.21
2022-08-17T20:45:27.460Z,84.64
2022-08-17T20:48:37.042Z,84.83
2022-08-17T20:50:57.581Z,84.11
2022-08-17T20:53:49.538Z,86.15
2022-08-17T20:56:46.562Z,84.86
2022-08-17T20:59:27.497Z,85.13
2022-08-17T21:02:12.474Z,85.65
2022-08-17T21:05:34.739Z,85.61
2022-08-17T21:08:13.180Z,85.32
2022-08-17T21:10:43.867Z,83.67
2022-08-17T21:13:16.249Z,84.27
2022-08-17T21:15:50.412Z,85.33
2022-08-17T21:18:52.800Z,86.24
2022-08-17T21:21:39.742Z,85.96
2022-08-17T21:24:23.072Z,86.08
2022-08-17T21:27:07.389Z,86.63
2022-08-17T21:29:40.552Z,84.48
2022-08-17T21:32:18.477Z,85.24
2022-08-17T21:35:11.410Z,86.02
2022-08-17T21:37:44.266Z,85.48
2022-08-17T21:40:10.819Z,85.05
2022-08-17T21:43:15.844Z,85.84
2022-08-17T21:45:43.542Z,83.69
2022-08-17T21:48:19.836Z,84.78
2022-08-17T21:51:15.323Z,85.90
2022-08-17T21:53:56.159Z,84.72
2022-08-17T21:56:35.521Z,84.86
2022-08-17T21:59:08.448Z,84.71
2022-08-17T22:01:42.235Z,84.14
2022-08-17T22:04:11.774Z,85.26
2022-08-17T22:06:40.343Z,84.89
2022-08-17T22:09:10.078Z,84.34
2022-08-17T22:11:56.777Z,85.61
2022-08-17T22:14:53.243Z,85.60
2022-08-17T22:17:48.229Z,86.11
2022-08-17T22:20:18.367Z,84.11
2022-08-17T22:23:12.691Z,85.39
2022-08-17T22:25:56.995Z,83.63
2022-08-17T22:28:37.399Z,85.61
2022-08-17T22:31:06.331Z,83.28
2022-08-17T22:33:33.381Z,83.52
2022-08-17T22:36:12.858Z,84.98
2022-08-17T22:38:41.432Z,83.44
2022-08-17T22:41:31.358Z,84.21
2022-08-17T22:44:27.427Z,85.91
2022-08-17T22:46:59.235Z,83.79
2022-08-17T22:49:34.136Z,84.61
2022-08-17T22:53:00.542Z,85.41
2022-08-17T22:55:48.791Z,83.66
2022-08-17T22:58:38.177Z,83.72
2022-08-17T23:01:28.719Z,85.39
2022-08-17T23:04:32.618Z,85.67
2022-08-17T23:06:59.262Z,83.48
2022-08-17T23:09:25.845Z,83.45
2022-08-17T23:11:58.994Z,83.99
2022-08-17T23:14:31.666Z,83.68
2022-08-17T23:17:01.855Z,83.40
2022-08-17T23:19:31.418Z,83.05
2022-08-17T23:21:59.203Z,83.19
2022-08-17T23:24:30.044Z,83.75
2022-08-17T23:26:58.115Z,83.95
2022-08-17T23:29:29.225Z,83.84
2022-08-17T23:31:59.848Z,83.53
2022-08-17T23:34:28.009Z,83.74
2022-08-17T23:36:55.854Z,83.31
2022-08-17T23:39:24.759Z,83.59
2022-08-17T23:41:56.813Z,83.39
2022-08-17T23:44:23.753Z,83.46
2022-08-17T23:46:51.912Z,83.92
2022-08-17T23:49:19.235Z,83.05
2022-08-17T23:51:47.739Z,83.93
2022-08-17T23:54:34.597Z,85.53
2022-08-17T23:57:01.951Z,85.74
2022-08-17T23:59:29.262Z,83.72
